Airfield :
LOGIN :

Register | Disclaimer

   EN    FR    IT 

 










Legend :    VFR   Marginal VFR   IFR   Intensive IFR   Very Intensive IFR
Visi :
Ceiling :
>= 8 km
>= 3000ft
5 to 8 km
1000 to 3000 ft
1500m to 5 km
500 to 1000 ft
800 to 1500m
200 to 500 ft
< 800m
< 200 ft
Symbols :   Thunderstorms  Fog  Heavy snow  Heavy precipitations  Wind > 20 kt
SIGMETs :     Misc.  Thunderstorms  Icing  Turbulence  Mountain Waves  Volcanic Ashes






- Airport Elevation : 359 ft
- IATA code : BVA


LFOB - Beauvais

CURRENT METAR :
  • 170730Z AUTO VRB02KT 4300 1100 R30/2900D R12/4600U BR VV/// 14/14 Q1016 BECMG 9999 NSW SCT048

EXPIRED METARs :
  • 170700Z AUTO 14002KT 3200 BR VV/// 14/14 Q1017 BECMG 9999 NSW SCT048
  • 170630Z AUTO VRB01KT 0550 0350 R30/1600U R12/0450N FG VV/// 13/13 Q1017 BECMG 9999 NSW SCT048
  • 170600Z AUTO 00000KT 1700 0550 R30/3400D R12/3200D BCFG BKN002 BKN050 12/12 Q1017 BECMG 9999 NSW SCT048
  • 170530Z AUTO VRB02KT 4300 BR FEW001 OVC050 13/12 Q1017 BECMG 9999 NSW BKN007
  • 170500Z AUTO 10003KT 4700 BR FEW001 OVC049 12/12 Q1017 TEMPO VV/// BECMG 9999 NSW

TAF AMD TAF LFOB
Valid from the 17 at 06:00 until the 18 at 06:00 UTC


170559Z 1706/1806 17003KT 3000 BR SCT048
PROB40
TEMPO 1706/1708 0500 FG BKN002
BECMG 1708/1710 9999 NSW
TEMPO 1803/1806 2000 BR
ATIS : +33 3 44 11 49 28



MET'MAP, your aeronautical weather chart ! - Copyright ORBIFLY December 2007 - Disclaimer

ORBIFLY MET'MAP TEAM :

Programming & Development : Alexandra Zaïnal
Concept & original design : Baudouin d'Aumeries
Assistance for programming : Marc-Olivier Méhu
Technical & hardware support : Manuel Goepfert

Contact : metmap@orbifly.com




SOURCES & CREDITS :

   NOAA